Time;durP1;ratioP1;P1;durP2;ratioP2;P2;SDS_P1;SDS_P2;PMS_P1;PMS_P2;Temp;Humidity;BMP_temperature;BMP_pressure;BME280_temperature;BME280_humidity;BME280_pressure;Samples;Min_cycle;Max_cycle;Signal;HPM_P1;HPM_P2
2021/01/30 00:01:58;;;;;;;1.85;0.80;;;2.80;91.60;;;;;;4975817;28;20365;-74
2021/01/30 00:04:23;;;;;;;1.80;1.10;;;2.80;91.90;;;;;;4975029;28;20038;-75
2021/01/30 00:06:51;;;;;;;2.75;1.65;;;2.80;91.60;;;;;;4975656;28;20043;-75
2021/01/30 00:09:18;;;;;;;1.63;1.10;;;2.70;91.60;;;;;;4975024;28;20476;-75
2021/01/30 00:11:49;;;;;;;3.97;1.85;;;2.70;91.60;;;;;;4957127;28;20110;-74
2021/01/30 00:14:20;;;;;;;3.35;1.80;;;2.70;91.60;;;;;;4941233;28;20086;-74
2021/01/30 00:16:46;;;;;;;2.72;1.48;;;2.70;91.60;;;;;;4975515;28;20356;-75
2021/01/30 00:19:12;;;;;;;2.65;1.80;;;2.60;91.80;;;;;;4975496;28;20390;-74
2021/01/30 00:21:38;;;;;;;3.00;1.65;;;2.60;91.50;;;;;;4955680;28;20051;-75
2021/01/30 00:24:05;;;;;;;2.38;1.55;;;2.50;91.50;;;;;;4975074;28;20054;-75
2021/01/30 00:26:31;;;;;;;3.63;2.08;;;2.60;91.60;;;;;;4974974;28;20407;-75
2021/01/30 00:28:57;;;;;;;2.72;1.58;;;2.60;91.50;;;;;;4956416;28;20047;-75
2021/01/30 00:31:25;;;;;;;3.45;1.88;;;2.60;91.50;;;;;;4975349;28;20031;-75
2021/01/30 00:33:50;;;;;;;1.80;1.20;;;2.50;91.40;;;;;;4957014;28;20607;-75
2021/01/30 00:36:16;;;;;;;2.10;1.50;;;2.50;91.40;;;;;;4974700;28;20046;-75
2021/01/30 00:38:42;;;;;;;2.58;1.30;;;2.50;91.50;;;;;;4974549;28;20056;-75
2021/01/30 00:41:08;;;;;;;2.80;1.48;;;2.50;91.50;;;;;;4975020;28;20038;-75
2021/01/30 00:43:33;;;;;;;2.50;1.35;;;2.60;91.50;;;;;;4956461;28;20027;-75
2021/01/30 00:45:59;;;;;;;3.20;1.60;;;2.50;91.50;;;;;;4974966;28;20089;-75
2021/01/30 00:48:25;;;;;;;3.30;1.80;;;2.50;91.50;;;;;;4956478;28;20051;-75
2021/01/30 00:50:51;;;;;;;3.35;1.48;;;2.50;91.50;;;;;;4974625;28;20078;-74
2021/01/30 00:53:16;;;;;;;2.83;1.88;;;2.40;91.40;;;;;;4974405;28;20121;-74
2021/01/30 00:55:42;;;;;;;2.55;1.55;;;2.30;91.40;;;;;;4974719;28;20223;-75
2021/01/30 00:58:08;;;;;;;4.15;2.25;;;2.30;91.40;;;;;;4974563;28;20041;-75
2021/01/30 01:00:33;;;;;;;3.50;1.83;;;2.30;91.50;;;;;;4956042;28;20069;-75
2021/01/30 01:02:59;;;;;;;3.08;1.70;;;2.20;91.40;;;;;;4974400;28;20101;-74
2021/01/30 01:05:25;;;;;;;3.25;1.70;;;2.20;91.50;;;;;;4974364;28;20136;-75
2021/01/30 01:07:51;;;;;;;3.65;1.92;;;2.20;91.50;;;;;;4974131;28;20069;-75
2021/01/30 01:10:20;;;;;;;3.85;2.13;;;2.20;91.50;;;;;;4956104;28;20440;-75
2021/01/30 01:12:46;;;;;;;3.08;1.58;;;2.10;91.50;;;;;;4974415;28;20042;-75
2021/01/30 01:15:13;;;;;;;3.03;1.70;;;2.10;91.50;;;;;;4974545;28;20058;-75
2021/01/30 01:17:39;;;;;;;3.95;2.17;;;2.10;91.50;;;;;;4973882;28;20055;-75
2021/01/30 01:20:08;;;;;;;3.92;2.10;;;2.10;91.50;;;;;;4955420;28;20404;-74
2021/01/30 01:22:33;;;;;;;3.22;1.75;;;2.10;91.50;;;;;;4974000;28;20419;-75
2021/01/30 01:24:59;;;;;;;4.82;2.50;;;2.10;91.50;;;;;;4974454;28;20038;-75
2021/01/30 01:27:25;;;;;;;3.88;2.05;;;2.10;91.50;;;;;;4974008;28;20035;-75
2021/01/30 01:29:51;;;;;;;3.22;1.90;;;2.00;91.50;;;;;;4973998;28;20063;-75
2021/01/30 01:32:16;;;;;;;4.20;2.30;;;2.00;91.50;;;;;;4955345;28;20059;-75
2021/01/30 01:34:43;;;;;;;3.50;1.90;;;2.00;91.50;;;;;;4955979;28;20031;-74
2021/01/30 01:37:09;;;;;;;3.65;1.95;;;2.00;91.50;;;;;;4974135;28;20039;-75
2021/01/30 01:39:35;;;;;;;2.40;1.50;;;2.00;91.50;;;;;;4939162;28;20054;-75
2021/01/30 01:42:14;;;;;;;3.00;1.80;;;2.00;91.50;;;;;;4974054;28;20066;-75
2021/01/30 01:44:42;;;;;;;3.30;1.58;;;2.00;91.50;;;;;;4973967;28;20031;-75
2021/01/30 01:47:14;;;;;;;3.17;1.77;;;2.00;91.50;;;;;;4974047;28;20471;-75
2021/01/30 01:49:41;;;;;;;;;;;2.00;91.50;;;;;;4973851;28;20546;-75
2021/01/30 01:52:26;;;;;;;2.05;1.20;;;1.90;91.50;;;;;;4973469;28;19906;-74
2021/01/30 01:54:57;;;;;;;2.45;1.40;;;1.90;91.50;;;;;;4973923;28;20039;-75
2021/01/30 01:57:24;;;;;;;2.78;1.55;;;1.90;91.50;;;;;;4973853;28;20031;-74
2021/01/30 01:59:54;;;;;;;2.95;1.50;;;1.90;91.50;;;;;;4972220;28;20046;-75
2021/01/30 02:02:20;;;;;;;2.75;1.58;;;1.80;91.50;;;;;;4973320;28;20033;-74
2021/01/30 02:04:57;;;;;;;1.92;1.38;;;1.80;91.50;;;;;;4955661;28;20043;-75
2021/01/30 02:07:22;;;;;;;2.80;1.60;;;1.80;91.50;;;;;;4973621;28;20117;-75
2021/01/30 02:09:48;;;;;;;2.42;1.50;;;1.80;91.50;;;;;;4973648;28;20471;-75
2021/01/30 02:12:14;;;;;;;2.22;1.25;;;1.80;91.50;;;;;;4956275;28;20105;-75
2021/01/30 02:14:47;;;;;;;2.72;1.50;;;1.80;91.50;;;;;;4973134;28;20074;-74
2021/01/30 02:17:39;;;;;;;2.22;1.33;;;1.80;91.50;;;;;;4973437;28;20034;-75
2021/01/30 02:20:44;;;;;;;1.70;1.25;;;1.80;91.50;;;;;;4973353;28;20129;-75
2021/01/30 02:23:44;;;;;;;1.75;1.02;;;1.80;91.40;;;;;;4973038;28;20554;-74
2021/01/30 02:26:36;;;;;;;1.67;1.10;;;1.80;91.40;;;;;;4943037;28;20495;-75
2021/01/30 02:29:20;;;;;;;1.77;1.10;;;1.80;91.40;;;;;;4955594;28;20061;-75
2021/01/30 02:32:05;;;;;;;1.95;1.10;;;1.80;91.30;;;;;;4972897;28;20073;-75
2021/01/30 02:34:52;;;;;;;1.48;1.10;;;1.70;91.30;;;;;;4972923;28;20387;-74
2021/01/30 02:37:22;;;;;;;2.13;1.17;;;1.70;91.30;;;;;;4955223;28;20045;-75
2021/01/30 02:39:54;;;;;;;1.65;1.10;;;1.70;91.30;;;;;;4973031;28;20189;-75
2021/01/30 02:42:26;;;;;;;2.42;1.20;;;1.70;91.30;;;;;;4973086;28;20034;-75
2021/01/30 02:45:08;;;;;;;1.80;1.08;;;1.70;91.30;;;;;;4953407;28;20043;-75
2021/01/30 02:47:39;;;;;;;2.38;1.38;;;1.70;91.30;;;;;;4972878;28;20042;-75
2021/01/30 02:50:14;;;;;;;1.77;1.05;;;1.60;91.30;;;;;;4955144;28;20150;-74
2021/01/30 02:52:41;;;;;;;2.60;1.30;;;1.60;91.30;;;;;;4972520;28;20503;-75
2021/01/30 02:55:11;;;;;;;1.27;0.93;;;1.60;91.30;;;;;;4972892;28;20047;-75
2021/01/30 02:57:39;;;;;;;1.55;1.00;;;1.60;91.30;;;;;;4972745;28;20049;-75
2021/01/30 03:00:12;;;;;;;2.15;1.13;;;1.60;91.20;;;;;;4972183;28;20043;-75
2021/01/30 03:02:39;;;;;;;2.20;1.27;;;1.60;91.20;;;;;;4972683;28;20057;-75
2021/01/30 03:05:07;;;;;;;1.65;1.17;;;1.60;91.20;;;;;;4972563;28;20049;-74
2021/01/30 03:07:57;;;;;;;2.10;1.25;;;1.50;91.20;;;;;;4972219;28;20471;-75
2021/01/30 03:10:33;;;;;;;2.00;1.10;;;1.60;91.20;;;;;;4971901;28;20396;-75
2021/01/30 03:13:12;;;;;;;1.80;1.10;;;1.60;91.20;;;;;;4972290;28;20063;-75
2021/01/30 03:15:57;;;;;;;1.42;0.80;;;1.60;91.20;;;;;;4972693;28;20113;-74
2021/01/30 03:18:31;;;;;;;1.08;0.80;;;1.60;91.20;;;;;;4972131;28;20097;-75
2021/01/30 03:20:57;;;;;;;1.98;1.20;;;1.70;91.20;;;;;;4953024;28;20039;-75
2021/01/30 03:23:23;;;;;;;1.65;1.20;;;1.70;91.20;;;;;;4972433;28;20451;-75
2021/01/30 03:25:50;;;;;;;1.77;1.10;;;1.60;91.10;;;;;;4953952;28;20499;-75
2021/01/30 03:28:17;;;;;;;1.90;1.00;;;1.60;91.10;;;;;;4971979;28;20035;-75
2021/01/30 03:30:44;;;;;;;2.97;1.75;;;1.60;91.10;;;;;;4972466;28;20538;-74
2021/01/30 03:33:10;;;;;;;2.30;1.38;;;1.60;91.10;;;;;;4954553;28;20043;-75
2021/01/30 03:35:36;;;;;;;1.95;1.30;;;1.50;91.00;;;;;;4955051;28;20062;-75
2021/01/30 03:38:03;;;;;;;2.45;1.38;;;1.50;91.00;;;;;;4953520;28;20066;-75
2021/01/30 03:40:29;;;;;;;1.73;1.15;;;1.50;91.00;;;;;;4952945;28;20055;-74
2021/01/30 03:42:55;;;;;;;1.63;1.23;;;1.50;91.00;;;;;;4971946;28;20376;-75
2021/01/30 03:45:28;;;;;;;3.08;1.23;;;1.40;91.00;;;;;;4972027;28;20042;-74
2021/01/30 03:47:54;;;;;;;1.75;1.10;;;1.50;91.00;;;;;;4972136;28;20045;-75
2021/01/30 03:50:20;;;;;;;2.10;1.23;;;1.50;91.00;;;;;;4971867;28;20462;-75
2021/01/30 03:52:46;;;;;;;1.85;1.00;;;1.50;91.00;;;;;;4952769;28;20043;-74
2021/01/30 03:55:12;;;;;;;1.98;1.20;;;1.40;91.00;;;;;;4954289;28;20126;-75
2021/01/30 03:57:38;;;;;;;2.28;1.30;;;1.40;91.00;;;;;;4972396;28;20038;-75
2021/01/30 04:00:09;;;;;;;3.85;1.35;;;1.50;91.00;;;;;;4972413;28;20043;-74
2021/01/30 04:02:35;;;;;;;1.70;1.05;;;1.40;91.00;;;;;;4972396;28;20046;-74
2021/01/30 04:05:00;;;;;;;1.83;1.17;;;1.50;91.00;;;;;;4971808;28;20042;-74
2021/01/30 04:07:26;;;;;;;1.92;1.25;;;1.50;91.00;;;;;;4972244;28;20424;-74
2021/01/30 04:09:52;;;;;;;0.88;0.80;;;1.40;90.90;;;;;;4971617;28;20039;-75
2021/01/30 04:12:18;;;;;;;2.25;0.95;;;1.50;91.00;;;;;;4971698;28;20490;-74
2021/01/30 04:14:43;;;;;;;1.42;1.10;;;1.50;91.00;;;;;;4972006;28;20033;-74
2021/01/30 04:17:09;;;;;;;1.27;1.02;;;1.40;90.90;;;;;;4972056;28;20043;-74
2021/01/30 04:19:37;;;;;;;1.20;0.93;;;1.50;90.90;;;;;;4971384;28;20459;-75
2021/01/30 04:22:04;;;;;;;2.50;1.35;;;1.50;90.90;;;;;;4954349;28;20039;-75
2021/01/30 04:24:30;;;;;;;2.28;1.42;;;1.50;90.90;;;;;;4974317;28;20475;-75
2021/01/30 04:26:55;;;;;;;1.55;0.85;;;1.50;90.80;;;;;;4974676;28;20089;-74
2021/01/30 04:29:21;;;;;;;1.40;1.00;;;1.50;90.90;;;;;;4956014;28;20042;-74
2021/01/30 04:31:54;;;;;;;1.15;0.80;;;1.40;90.80;;;;;;4974726;28;20483;-75
2021/01/30 04:34:20;;;;;;;1.52;0.93;;;1.50;90.90;;;;;;4974550;28;20045;-75
2021/01/30 04:36:46;;;;;;;0.88;0.63;;;1.40;90.80;;;;;;4974723;28;20129;-75
2021/01/30 04:39:12;;;;;;;1.20;0.77;;;1.50;90.80;;;;;;4975008;28;20050;-75
2021/01/30 04:41:59;;;;;;;1.38;0.73;;;1.40;90.80;;;;;;4974620;28;20031;-75
2021/01/30 04:44:46;;;;;;;1.20;0.77;;;1.30;90.80;;;;;;4952602;29;20032;-75
2021/01/30 04:47:27;;;;;;;0.70;0.70;;;1.30;90.90;;;;;;4954862;29;20050;-74
2021/01/30 04:50:11;;;;;;;1.23;0.80;;;1.30;90.90;;;;;;4937846;29;20050;-74
2021/01/30 04:52:52;;;;;;;1.33;1.00;;;1.30;90.90;;;;;;4953828;28;20040;-75
2021/01/30 04:55:57;;;;;;;1.73;0.82;;;1.20;90.80;;;;;;4954783;28;20490;-75
2021/01/30 04:58:47;;;;;;;1.33;0.82;;;1.20;90.90;;;;;;4953258;28;20040;-75
2021/01/30 05:01:26;;;;;;;1.10;0.73;;;1.10;90.90;;;;;;4953969;29;20476;-75
2021/01/30 05:04:15;;;;;;;1.00;0.70;;;1.10;90.90;;;;;;4936241;29;20063;-75
2021/01/30 05:06:50;;;;;;;1.02;0.73;;;1.10;90.90;;;;;;4953712;28;20054;-74
2021/01/30 05:09:27;;;;;;;0.50;0.50;;;1.10;90.90;;;;;;4954833;28;20031;-75
2021/01/30 05:12:02;;;;;;;0.77;0.65;;;1.10;90.90;;;;;;4936263;29;20395;-75
2021/01/30 05:14:35;;;;;;;0.52;0.50;;;1.10;90.90;;;;;;4954174;28;20035;-75
2021/01/30 05:17:11;;;;;;;0.90;0.60;;;1.10;91.00;;;;;;4954851;28;20039;-75
2021/01/30 05:19:42;;;;;;;0.75;0.60;;;1.00;90.90;;;;;;4955315;28;20051;-75
2021/01/30 05:22:11;;;;;;;;;;;1.00;90.90;;;;;;4953827;28;20407;-75
2021/01/30 05:24:37;;;;;;;0.65;0.55;;;1.00;90.90;;;;;;4954814;28;19915;-75
2021/01/30 05:27:42;;;;;;;0.88;0.68;;;1.00;90.90;;;;;;4954784;28;20677;-74
2021/01/30 05:30:18;;;;;;;0.70;0.60;;;1.00;90.90;;;;;;4940306;28;20047;-75
2021/01/30 05:33:19;;;;;;;1.90;0.70;;;0.90;90.90;;;;;;4953213;28;20130;-74
2021/01/30 05:36:02;;;;;;;2.35;0.73;;;0.90;90.90;;;;;;4952703;29;20110;-75
2021/01/30 05:38:40;;;;;;;0.68;0.50;;;0.90;90.90;;;;;;4952999;28;20496;-75
2021/01/30 05:41:12;;;;;;;1.05;0.70;;;0.90;90.90;;;;;;4954313;28;20046;-75
2021/01/30 05:43:53;;;;;;;0.77;0.60;;;0.90;90.90;;;;;;4954360;28;20070;-75
2021/01/30 05:46:29;;;;;;;0.90;0.60;;;0.90;91.00;;;;;;4936349;29;20547;-75
2021/01/30 05:48:57;;;;;;;0.85;0.63;;;1.00;90.90;;;;;;4952948;28;20099;-74
2021/01/30 05:51:40;;;;;;;1.00;0.80;;;1.00;90.90;;;;;;4954606;28;20114;-75
2021/01/30 05:54:06;;;;;;;1.17;0.80;;;1.00;90.80;;;;;;4953672;29;20044;-74
2021/01/30 05:56:40;;;;;;;1.00;0.80;;;1.00;90.80;;;;;;4954528;29;20038;-75
2021/01/30 05:59:10;;;;;;;1.60;0.70;;;1.00;90.70;;;;;;4954673;28;20403;-74
2021/01/30 06:01:36;;;;;;;0.85;0.63;;;1.10;90.70;;;;;;4954427;28;20098;-74
2021/01/30 06:04:07;;;;;;;1.42;0.90;;;1.10;90.70;;;;;;4954330;28;20031;-74
2021/01/30 06:06:37;;;;;;;1.88;1.13;;;1.10;90.70;;;;;;4954437;28;20099;-74
2021/01/30 06:09:41;;;;;;;1.30;0.98;;;1.10;90.70;;;;;;4937291;29;20567;-74
2021/01/30 06:12:25;;;;;;;1.10;0.90;;;1.10;90.60;;;;;;4953248;28;20043;-75
2021/01/30 06:14:54;;;;;;;0.93;0.65;;;1.20;90.60;;;;;;4953159;28;20067;-75
2021/01/30 06:17:31;;;;;;;0.70;0.60;;;1.10;90.60;;;;;;4937131;29;20039;-75
2021/01/30 06:20:28;;;;;;;1.00;0.80;;;1.10;90.60;;;;;;4953672;28;20051;-75
2021/01/30 06:23:12;;;;;;;1.00;0.90;;;1.20;90.60;;;;;;4936422;28;20483;-75
2021/01/30 06:25:42;;;;;;;1.15;0.80;;;1.10;90.50;;;;;;4953489;28;20123;-74
2021/01/30 06:28:25;;;;;;;1.27;0.85;;;1.10;90.50;;;;;;4954239;28;20047;-74
2021/01/30 06:30:52;;;;;;;1.00;0.70;;;1.20;90.50;;;;;;4952759;28;20110;-75
2021/01/30 06:33:28;;;;;;;2.13;1.20;;;1.10;90.40;;;;;;4937324;29;20118;-74
2021/01/30 06:36:15;;;;;;;1.80;1.00;;;1.10;90.40;;;;;;4937023;29;20035;-74
2021/01/30 06:38:47;;;;;;;1.58;1.00;;;1.10;90.40;;;;;;4953705;28;20368;-75
2021/01/30 06:41:21;;;;;;;1.98;1.17;;;1.10;90.40;;;;;;4954156;28;20431;-75
2021/01/30 06:43:53;;;;;;;1.50;1.10;;;1.10;90.40;;;;;;4952123;28;20039;-75
2021/01/30 06:46:23;;;;;;;1.45;0.93;;;1.10;90.40;;;;;;4953040;28;20031;-75
2021/01/30 06:48:52;;;;;;;1.17;0.80;;;1.10;90.40;;;;;;4953666;28;20035;-75
2021/01/30 06:51:36;;;;;;;1.05;0.70;;;1.10;90.30;;;;;;4953920;28;20040;-74
2021/01/30 06:54:18;;;;;;;0.95;0.80;;;1.10;90.30;;;;;;4953530;29;20039;-75
2021/01/30 06:56:44;;;;;;;;;;;1.10;90.30;;;;;;4935607;29;20038;-75
2021/01/30 06:59:20;;;;;;;1.48;0.88;;;1.20;90.30;;;;;;4953244;28;19906;-75
2021/01/30 07:01:48;;;;;;;1.00;0.80;;;1.10;90.30;;;;;;4935598;29;20138;-74
2021/01/30 07:04:44;;;;;;;1.40;0.80;;;1.10;90.30;;;;;;4953711;28;20059;-74
2021/01/30 07:07:27;;;;;;;1.23;0.82;;;1.10;90.30;;;;;;4921628;29;20506;-75
2021/01/30 07:10:24;;;;;;;0.75;0.57;;;1.10;90.30;;;;;;4951918;29;20046;-75
2021/01/30 07:13:15;;;;;;;1.80;0.93;;;1.20;90.30;;;;;;4955164;28;20031;-75
2021/01/30 07:15:47;;;;;;;1.27;0.75;;;1.20;90.30;;;;;;4972961;28;20129;-75
2021/01/30 07:18:27;;;;;;;0.68;0.60;;;1.20;90.30;;;;;;4953638;28;20056;-75
2021/01/30 07:21:17;;;;;;;1.20;0.77;;;1.20;90.30;;;;;;4972679;28;20050;-75
2021/01/30 07:24:05;;;;;;;1.38;0.73;;;1.20;90.30;;;;;;4972814;28;20458;-74
2021/01/30 07:26:38;;;;;;;0.70;0.50;;;1.10;90.20;;;;;;4972262;28;20499;-74
2021/01/30 07:29:13;;;;;;;1.02;0.52;;;1.10;90.20;;;;;;4972082;28;20046;-74
2021/01/30 07:31:45;;;;;;;0.95;0.80;;;1.20;90.20;;;;;;4972410;28;20034;-75
2021/01/30 07:34:15;;;;;;;;;;;1.20;90.30;;;;;;4972622;28;20054;-75
2021/01/30 07:36:49;;;;;;;1.55;0.70;;;1.10;90.20;;;;;;4972428;28;20351;-74
2021/01/30 07:39:41;;;;;;;0.88;0.50;;;1.20;90.20;;;;;;4972306;28;20042;-75
2021/01/30 07:42:26;;;;;;;0.85;0.70;;;1.10;90.20;;;;;;4942313;28;20077;-75
2021/01/30 07:45:22;;;;;;;0.70;0.35;;;1.20;90.20;;;;;;4972232;28;20035;-75
2021/01/30 07:48:00;;;;;;;0.80;0.47;;;1.20;90.20;;;;;;4972220;28;20049;-75
2021/01/30 07:50:29;;;;;;;0.63;0.63;;;1.20;90.20;;;;;;4972341;28;20130;-74
2021/01/30 07:53:13;;;;;;;0.95;0.60;;;1.30;90.20;;;;;;4972710;28;20047;-74
2021/01/30 07:56:02;;;;;;;1.30;0.80;;;1.20;90.20;;;;;;4972108;28;20490;-74
2021/01/30 07:58:57;;;;;;;1.08;0.70;;;1.20;90.20;;;;;;4973482;28;20039;-74
2021/01/30 08:01:40;;;;;;;1.73;0.90;;;1.20;90.30;;;;;;4962504;28;20100;-74
2021/01/30 08:04:35;;;;;;;0.98;0.77;;;1.30;90.20;;;;;;4954668;28;20110;-75
2021/01/30 08:07:27;;;;;;;1.20;0.82;;;1.20;90.20;;;;;;4952886;28;20062;-74
2021/01/30 08:10:03;;;;;;;1.05;0.70;;;1.20;90.20;;;;;;4955293;29;20535;-74
2021/01/30 08:13:01;;;;;;;1.33;0.80;;;1.30;90.20;;;;;;4954965;28;20047;-74
2021/01/30 08:15:35;;;;;;;1.35;0.80;;;1.20;90.10;;;;;;4955908;28;20039;-74
2021/01/30 08:18:31;;;;;;;1.15;0.70;;;1.30;90.20;;;;;;4955794;28;20043;-74
2021/01/30 08:21:16;;;;;;;1.40;0.80;;;1.30;90.10;;;;;;4955702;29;20043;-74
2021/01/30 08:23:59;;;;;;;1.27;0.77;;;1.20;90.10;;;;;;4955663;28;20055;-74
2021/01/30 08:26:31;;;;;;;1.52;0.80;;;1.20;90.10;;;;;;4953587;29;20070;-74
2021/01/30 08:29:19;;;;;;;1.40;0.70;;;1.30;90.10;;;;;;4955901;28;20078;-74
2021/01/30 08:31:49;;;;;;;1.58;0.93;;;1.30;90.10;;;;;;4953824;28;20047;-75
2021/01/30 08:34:29;;;;;;;1.08;0.80;;;1.20;90.10;;;;;;4937894;28;20424;-75
2021/01/30 08:36:58;;;;;;;2.53;1.30;;;1.30;90.10;;;;;;4938206;29;20495;-74
2021/01/30 08:39:34;;;;;;;2.08;1.10;;;1.30;90.00;;;;;;4938212;29;20043;-75
2021/01/30 08:42:14;;;;;;;2.20;1.10;;;1.30;90.00;;;;;;4954264;28;20035;-75
2021/01/30 08:44:52;;;;;;;2.13;1.15;;;1.30;90.00;;;;;;4955409;28;20039;-75
2021/01/30 08:47:24;;;;;;;1.50;1.02;;;1.30;90.00;;;;;;4954100;28;20039;-75
2021/01/30 08:49:54;;;;;;;;;;;1.40;90.00;;;;;;4955690;28;20526;-75
2021/01/30 08:52:32;;;;;;;0.95;0.70;;;1.40;90.00;;;;;;4955210;28;19913;-75
2021/01/30 08:54:59;;;;;;;0.98;0.80;;;1.40;89.90;;;;;;4938265;29;20469;-75
2021/01/30 08:57:42;;;;;;;1.23;0.70;;;1.50;89.80;;;;;;4955071;28;20047;-75
2021/01/30 09:00:33;;;;;;;1.40;0.70;;;1.50;89.80;;;;;;4954749;28;20451;-75
2021/01/30 09:03:01;;;;;;;0.88;0.70;;;1.50;89.80;;;;;;4954896;28;20451;-74
2021/01/30 09:05:38;;;;;;;1.13;0.60;;;1.50;89.70;;;;;;4955178;28;20049;-74
2021/01/30 09:08:32;;;;;;;1.15;0.70;;;1.60;89.70;;;;;;4953762;28;20047;-74
2021/01/30 09:11:34;;;;;;;0.70;0.60;;;1.60;89.70;;;;;;4941839;28;20047;-75
2021/01/30 09:14:06;;;;;;;0.98;0.60;;;1.70;89.60;;;;;;4954919;28;20032;-74
2021/01/30 09:16:45;;;;;;;1.40;0.70;;;1.70;89.50;;;;;;4953219;28;20038;-74
2021/01/30 09:19:24;;;;;;;1.27;0.70;;;1.80;90.00;;;;;;4954755;28;20058;-75
2021/01/30 09:22:00;;;;;;;1.23;0.73;;;1.80;89.50;;;;;;4953959;28;20087;-75
2021/01/30 09:24:48;;;;;;;1.08;0.65;;;1.80;89.40;;;;;;4938437;28;20039;-75
2021/01/30 09:27:22;;;;;;;0.55;0.40;;;1.90;89.50;;;;;;4954563;28;20035;-74
2021/01/30 09:29:50;;;;;;;1.10;0.70;;;1.90;89.40;;;;;;4938108;28;20055;-74
2021/01/30 09:32:25;;;;;;;0.88;0.60;;;1.90;89.30;;;;;;4954517;28;20479;-74
2021/01/30 09:34:58;;;;;;;1.08;0.73;;;1.90;89.30;;;;;;4953149;28;20038;-74
2021/01/30 09:37:36;;;;;;;1.02;0.70;;;1.90;89.30;;;;;;4953786;28;20410;-74
2021/01/30 09:40:07;;;;;;;1.23;0.80;;;1.90;89.40;;;;;;4954533;28;20048;-74
2021/01/30 09:42:33;;;;;;;1.17;0.80;;;1.90;89.30;;;;;;4952603;28;20492;-75
2021/01/30 09:45:10;;;;;;;1.83;0.80;;;2.00;89.30;;;;;;4954405;29;20126;-74
2021/01/30 09:47:41;;;;;;;1.00;0.65;;;2.00;89.10;;;;;;4953010;28;20059;-75
2021/01/30 09:50:13;;;;;;;1.88;0.80;;;2.10;89.20;;;;;;4935524;29;20125;-75
2021/01/30 09:52:50;;;;;;;1.10;0.70;;;2.10;89.10;;;;;;4953214;28;20054;-75
2021/01/30 09:55:17;;;;;;;1.15;0.75;;;2.10;89.00;;;;;;4954334;28;20047;-74
2021/01/30 09:57:44;;;;;;;0.98;0.60;;;2.10;89.00;;;;;;4954316;28;20035;-74
2021/01/30 10:00:18;;;;;;;0.95;0.68;;;2.20;89.00;;;;;;4921110;29;20047;-74
2021/01/30 10:02:43;;;;;;;1.45;0.77;;;2.10;89.00;;;;;;4954087;29;20046;-73
2021/01/30 10:05:16;;;;;;;1.27;0.70;;;2.20;88.90;;;;;;4936893;29;20391;-73
2021/01/30 10:07:44;;;;;;;0.90;0.73;;;2.20;88.90;;;;;;4953149;28;20047;-74
2021/01/30 10:10:30;;;;;;;0.88;0.65;;;2.30;89.00;;;;;;4937145;29;20047;-74
2021/01/30 10:12:58;;;;;;;1.25;0.73;;;2.30;88.80;;;;;;4952722;28;20042;-74
2021/01/30 10:15:30;;;;;;;1.52;0.80;;;2.30;88.80;;;;;;4954368;28;20035;-73
2021/01/30 10:18:01;;;;;;;0.85;0.60;;;2.30;88.70;;;;;;4953137;28;20117;-74
2021/01/30 10:20:27;;;;;;;1.10;0.80;;;2.40;88.70;;;;;;4952003;28;20039;-74
2021/01/30 10:22:52;;;;;;;1.45;0.80;;;2.50;88.70;;;;;;4937495;29;20555;-74
2021/01/30 10:25:25;;;;;;;1.15;0.80;;;2.50;88.50;;;;;;4954250;28;20114;-74
2021/01/30 10:28:03;;;;;;;1.15;0.70;;;2.50;88.50;;;;;;4954125;28;20051;-74
2021/01/30 10:30:29;;;;;;;1.40;0.80;;;2.60;88.50;;;;;;4952772;29;20048;-74
2021/01/30 10:32:57;;;;;;;0.73;0.70;;;2.50;88.40;;;;;;4936722;29;20391;-73
2021/01/30 10:35:30;;;;;;;1.73;1.08;;;2.60;88.40;;;;;;4952763;29;20023;-73
2021/01/30 10:38:06;;;;;;;1.17;0.95;;;2.60;88.30;;;;;;4955588;28;20038;-77
2021/01/30 10:40:43;;;;;;;1.33;0.82;;;2.60;89.00;;;;;;4953032;28;20093;-77
2021/01/30 10:43:26;;;;;;;1.05;0.70;;;2.60;88.30;;;;;;4954136;28;20053;-77
2021/01/30 10:45:56;;;;;;;1.58;0.80;;;2.70;88.30;;;;;;4953244;28;20062;-77
2021/01/30 10:48:24;;;;;;;1.45;0.82;;;2.70;88.20;;;;;;4954048;28;20451;-77
2021/01/30 10:50:51;;;;;;;0.80;0.50;;;2.70;88.10;;;;;;4953920;28;20051;-77
2021/01/30 10:53:37;;;;;;;2.03;1.00;;;2.80;88.20;;;;;;4953732;28;20035;-76
2021/01/30 10:56:21;;;;;;;0.95;0.60;;;2.80;88.20;;;;;;4952530;28;20476;-76
2021/01/30 10:58:48;;;;;;;0.88;0.75;;;2.80;88.10;;;;;;4952578;28;20064;-76
2021/01/30 11:01:34;;;;;;;1.27;0.90;;;2.90;88.10;;;;;;4953715;29;20035;-77
2021/01/30 11:04:02;;;;;;;1.08;0.80;;;2.90;88.00;;;;;;4937548;29;20032;-76
2021/01/30 11:06:36;;;;;;;2.17;1.02;;;2.90;87.90;;;;;;4952250;28;20130;-76
2021/01/30 11:09:12;;;;;;;0.88;0.60;;;3.00;87.90;;;;;;4951973;29;20468;-76
2021/01/30 11:11:40;;;;;;;0.77;0.75;;;3.00;87.80;;;;;;4952457;29;20066;-76
2021/01/30 11:14:27;;;;;;;0.73;0.57;;;3.10;87.70;;;;;;4953809;28;20036;-77
2021/01/30 11:16:54;;;;;;;1.10;0.80;;;3.10;87.80;;;;;;4953406;28;20388;-77
2021/01/30 11:19:35;;;;;;;1.13;0.88;;;3.10;87.70;;;;;;4953796;29;20042;-77
2021/01/30 11:22:17;;;;;;;1.33;0.77;;;3.10;87.60;;;;;;4951954;28;20114;-77
2021/01/30 11:24:46;;;;;;;1.58;0.93;;;3.20;87.70;;;;;;4952756;29;20118;-76
2021/01/30 11:27:46;;;;;;;1.50;1.00;;;3.20;87.70;;;;;;4953463;28;20500;-76
2021/01/30 11:30:19;;;;;;;1.45;0.95;;;3.20;87.60;;;;;;4952556;28;20134;-77
2021/01/30 11:32:53;;;;;;;0.95;0.75;;;3.20;87.60;;;;;;4955201;28;20039;-77
2021/01/30 11:35:26;;;;;;;0.95;0.73;;;3.30;87.60;;;;;;4955683;28;20039;-77
2021/01/30 11:37:53;;;;;;;1.13;0.73;;;3.30;87.40;;;;;;4939956;29;20051;-77
2021/01/30 11:40:19;;;;;;;0.65;0.60;;;3.30;87.40;;;;;;4924166;29;20043;-76
2021/01/30 11:42:45;;;;;;;0.75;0.75;;;3.30;87.40;;;;;;4956111;28;20129;-77
2021/01/30 11:45:12;;;;;;;1.13;0.70;;;3.30;87.40;;;;;;4956241;28;20075;-76
2021/01/30 11:47:38;;;;;;;1.30;0.75;;;3.30;87.50;;;;;;4956511;28;20046;-76
2021/01/30 11:50:06;;;;;;;1.17;0.80;;;3.30;87.50;;;;;;4956689;28;20047;-77
2021/01/30 11:52:32;;;;;;;1.60;1.00;;;3.30;87.60;;;;;;4954624;28;20067;-78
2021/01/30 11:54:58;;;;;;;1.60;0.95;;;3.30;87.50;;;;;;4925184;28;20038;-78
2021/01/30 11:57:24;;;;;;;1.15;0.95;;;3.30;87.50;;;;;;4958351;28;20046;-79
2021/01/30 11:59:50;;;;;;;2.00;0.95;;;3.30;87.50;;;;;;4940630;29;20043;-78
2021/01/30 12:02:28;;;;;;;1.10;0.75;;;3.30;87.50;;;;;;4940120;28;20043;-79
2021/01/30 12:04:53;;;;;;;1.13;0.77;;;3.30;87.50;;;;;;4957376;28;20118;-78
2021/01/30 12:07:19;;;;;;;2.13;1.10;;;3.30;87.50;;;;;;4940587;28;20066;-79
2021/01/30 12:09:45;;;;;;;1.38;1.00;;;3.20;87.50;;;;;;4909476;28;20054;-78
2021/01/30 12:12:10;;;;;;;1.88;1.20;;;3.30;87.50;;;;;;4942021;28;20035;-79
2021/01/30 12:14:36;;;;;;;1.90;1.10;;;3.30;87.50;;;;;;4942320;28;20035;-78
2021/01/30 12:17:02;;;;;;;1.33;0.90;;;3.20;87.40;;;;;;4939161;28;20488;-79
2021/01/30 12:19:27;;;;;;;1.92;1.10;;;3.20;87.60;;;;;;4940452;28;20043;-79
2021/01/30 12:21:53;;;;;;;1.20;0.80;;;3.30;87.70;;;;;;4958869;29;20042;-78
2021/01/30 12:24:19;;;;;;;1.50;0.88;;;3.30;87.50;;;;;;4941276;28;20586;-79
2021/01/30 12:26:45;;;;;;;1.17;0.82;;;3.30;87.50;;;;;;4957702;29;20459;-78
2021/01/30 12:29:11;;;;;;;0.90;0.70;;;3.30;87.50;;;;;;4940771;29;20073;-79
2021/01/30 12:31:37;;;;;;;1.48;1.00;;;3.30;87.50;;;;;;4958664;28;20102;-79
2021/01/30 12:34:03;;;;;;;2.25;1.20;;;3.20;87.50;;;;;;4940332;29;20047;-78
2021/01/30 12:36:28;;;;;;;1.48;0.90;;;3.30;87.50;;;;;;4957252;28;20070;-78
2021/01/30 12:38:54;;;;;;;2.15;1.30;;;3.40;87.50;;;;;;4957409;28;20138;-78
2021/01/30 12:41:20;;;;;;;1.75;1.10;;;3.30;87.30;;;;;;4957039;29;20068;-78
2021/01/30 12:43:45;;;;;;;2.20;1.17;;;3.30;87.40;;;;;;4959903;28;20565;-78
2021/01/30 12:46:11;;;;;;;0.93;0.70;;;3.30;87.40;;;;;;4945901;29;20073;-79
2021/01/30 12:48:37;;;;;;;2.28;1.30;;;3.30;87.40;;;;;;4961737;28;20031;-79
2021/01/30 12:51:03;;;;;;;1.55;1.02;;;3.40;87.30;;;;;;4962973;28;20623;-78
2021/01/30 12:53:30;;;;;;;1.52;1.02;;;3.40;87.30;;;;;;4963164;28;20183;-79
2021/01/30 12:55:56;;;;;;;1.55;1.00;;;3.40;87.20;;;;;;4962007;28;20039;-79
2021/01/30 12:58:25;;;;;;;1.40;1.02;;;3.50;87.20;;;;;;4963192;28;20034;-76
2021/01/30 13:00:52;;;;;;;1.77;1.17;;;3.50;87.10;;;;;;4941052;29;20070;-77
2021/01/30 13:03:18;;;;;;;1.30;0.90;;;3.50;86.90;;;;;;4956339;28;20373;-77
2021/01/30 13:05:45;;;;;;;2.40;1.30;;;3.50;86.90;;;;;;4956360;28;20035;-77
2021/01/30 13:08:12;;;;;;;1.48;0.85;;;3.50;86.90;;;;;;4941920;29;20040;-77
2021/01/30 13:10:38;;;;;;;1.70;1.08;;;3.50;87.00;;;;;;4959389;28;20047;-79
2021/01/30 13:13:04;;;;;;;1.83;1.10;;;3.50;87.00;;;;;;4933045;29;20085;-77
2021/01/30 13:15:30;;;;;;;1.67;1.05;;;3.50;87.00;;;;;;4969186;28;20103;-79
2021/01/30 13:17:55;;;;;;;1.77;1.00;;;3.40;87.40;;;;;;4974674;28;20415;-78
2021/01/30 13:20:22;;;;;;;1.80;1.20;;;3.40;86.90;;;;;;4953049;29;20059;-76
2021/01/30 13:22:48;;;;;;;2.03;1.02;;;3.40;87.00;;;;;;4971908;28;20051;-76
2021/01/30 13:25:15;;;;;;;2.13;1.13;;;3.40;87.00;;;;;;4970772;28;20074;-77
2021/01/30 13:27:41;;;;;;;2.55;1.50;;;3.30;87.10;;;;;;4966039;28;20515;-78
2021/01/30 13:30:12;;;;;;;1.80;1.17;;;3.30;87.10;;;;;;4954352;29;20123;-78